Time;durP1;ratioP1;P1;durP2;ratioP2;P2;SDS_P1;SDS_P2;PMS_P1;PMS_P2;Temp;Humidity;BMP_temperature;BMP_pressure;BME280_temperature;BME280_humidity;BME280_pressure;Samples;Min_cycle;Max_cycle;Signal;HPM_P1;HPM_P2
2022/05/02 00:02:17;;;;;;;;;19.00;18.00;;;;;14.53;44.33;101204.16;6300012;22;45603;-75
2022/05/02 00:04:42;;;;;;;;;19.50;14.50;;;;;14.55;44.29;101207.53;6300946;22;45553;-76
2022/05/02 00:07:08;;;;;;;;;19.25;18.25;;;;;14.52;44.43;101198.06;6300833;22;45486;-75
2022/05/02 00:09:33;;;;;;;;;19.00;17.75;;;;;14.53;44.94;101201.53;6300793;22;45689;-75
2022/05/02 00:11:58;;;;;;;;;16.00;15.00;;;;;14.52;44.30;101195.41;6299860;22;45559;-76
2022/05/02 00:14:24;;;;;;;;;21.00;17.50;;;;;14.53;44.70;101201.53;6300744;22;45627;-77
2022/05/02 00:16:49;;;;;;;;;15.50;14.50;;;;;14.50;44.29;101189.44;6301053;22;46014;-75
2022/05/02 00:19:15;;;;;;;;;17.25;16.00;;;;;14.50;44.49;101193.88;6300908;22;45761;-76
2022/05/02 00:21:40;;;;;;;;;17.75;16.50;;;;;14.47;44.66;101187.03;6300110;22;46333;-77
2022/05/02 00:24:07;;;;;;;;;19.00;18.00;;;;;14.45;44.34;101188.13;6300751;22;45761;-77
2022/05/02 00:26:32;;;;;;;;;18.00;17.50;;;;;14.43;44.30;101184.75;6301105;22;45776;-77
2022/05/02 00:28:58;;;;;;;;;17.75;17.25;;;;;14.42;44.79;101185.72;6299674;22;46495;-77
2022/05/02 00:31:23;;;;;;;;;19.00;18.50;;;;;14.39;45.19;101178.06;6299054;22;45615;-77
2022/05/02 00:33:48;;;;;;;;;21.50;18.75;;;;;14.37;44.77;101179.97;6300630;22;45525;-78
2022/05/02 00:36:15;;;;;;;;;19.50;18.50;;;;;14.36;45.12;101180.91;6300904;22;45728;-77
2022/05/02 00:38:40;;;;;;;;;19.75;19.00;;;;;14.32;45.35;101185.56;6300519;22;45898;-77
2022/05/02 00:41:08;;;;;;;;;20.25;19.00;;;;;14.29;45.36;101172.63;6271682;22;48323;-77
2022/05/02 00:43:33;;;;;;;;;21.75;19.75;;;;;14.26;45.37;101176.31;6300037;22;45858;-77
2022/05/02 00:45:59;;;;;;;;;21.50;20.75;;;;;14.23;45.14;101166.03;6300311;22;45734;-77
2022/05/02 00:48:25;;;;;;;;;22.50;18.50;;;;;14.23;45.39;101171.31;6300077;22;45731;-77
2022/05/02 00:50:51;;;;;;;;;20.25;18.00;;;;;14.24;45.13;101169.50;6298859;22;46585;-77
2022/05/02 00:53:22;;;;;;;;;23.75;22.50;;;;;14.22;45.03;101164.34;6301137;22;45675;-77
2022/05/02 00:55:48;;;;;;;;;23.00;21.75;;;;;14.22;45.08;101174.91;6272782;22;45866;-78
2022/05/02 00:58:16;;;;;;;;;22.00;21.75;;;;;14.21;45.21;101161.81;6299691;22;45837;-76
2022/05/02 01:00:42;;;;;;;;;27.75;23.25;;;;;14.18;45.43;101162.91;6299298;22;46371;-77
2022/05/02 01:03:10;;;;;;;;;22.75;22.00;;;;;14.14;45.50;101148.28;6299840;22;45537;-77
2022/05/02 01:07:08;;;;;;;;;23.50;20.75;;;;;14.16;45.32;101156.91;6272936;22;45570;-77
2022/05/02 01:08:30;;;;;;;;;22.50;20.25;;;;;14.14;45.74;101143.00;6299398;22;45678;-77
2022/05/02 01:10:57;;;;;;;;;22.25;21.00;;;;;14.12;45.58;101141.47;6298678;22;47460;-77
2022/05/02 01:13:39;;;;;;;;;23.50;20.25;;;;;14.07;45.23;101131.28;6300443;22;45595;-77
2022/05/02 01:16:18;;;;;;;;;24.50;21.00;;;;;14.12;45.88;101134.41;6300841;22;45522;-77
2022/05/02 01:18:51;;;;;;;;;24.25;20.00;;;;;14.12;45.64;101130.94;6300601;22;47020;-77
2022/05/02 01:21:22;;;;;;;;;21.25;19.00;;;;;14.07;45.74;101120.75;6271667;22;46603;-77
2022/05/02 01:23:49;;;;;;;;;19.00;18.25;;;;;14.11;45.38;101132.72;6300550;22;46023;-77
2022/05/02 01:26:15;;;;;;;;;21.50;19.75;;;;;14.10;45.74;101128.41;6299987;22;45516;-77
2022/05/02 01:28:41;;;;;;;;;26.25;24.50;;;;;14.10;45.82;101127.56;6299481;22;46156;-77
2022/05/02 01:31:07;;;;;;;;;26.00;20.50;;;;;14.07;45.56;101128.66;6299233;22;46151;-76
2022/05/02 01:33:34;;;;;;;;;23.00;19.00;;;;;14.11;45.76;101134.50;6300097;22;45770;-75
2022/05/02 01:35:59;;;;;;;;;20.25;20.00;;;;;14.06;45.80;101126.13;6300585;22;45606;-75
2022/05/02 01:38:25;;;;;;;;;22.00;20.00;;;;;14.05;45.48;101127.91;6300409;22;45612;-77
2022/05/02 01:40:50;;;;;;;;;23.75;20.75;;;;;14.07;45.89;101133.91;6271044;22;46178;-77
2022/05/02 01:43:15;;;;;;;;;26.00;21.00;;;;;14.01;45.98;101129.13;6298336;22;46135;-77
2022/05/02 01:45:41;;;;;;;;;21.25;19.00;;;;;14.04;45.90;101143.84;6272247;22;45549;-77
2022/05/02 01:48:07;;;;;;;;;19.25;18.25;;;;;14.02;45.83;101130.81;6300163;22;45569;-77
2022/05/02 01:50:32;;;;;;;;;22.75;20.25;;;;;13.98;45.69;101129.34;6299597;22;45791;-77
2022/05/02 01:52:57;;;;;;;;;29.25;24.00;;;;;13.97;45.79;101135.59;6299474;22;45584;-77
2022/05/02 01:55:23;;;;;;;;;19.75;18.25;;;;;13.94;46.12;101132.34;6300160;22;45656;-77
2022/05/02 01:57:48;;;;;;;;;19.50;18.50;;;;;13.91;45.92;101136.06;6299293;22;47478;-77
2022/05/02 02:00:14;;;;;;;;;25.50;20.75;;;;;13.91;45.73;101137.84;6301068;22;46537;-76
2022/05/02 02:02:39;;;;;;;;;20.75;20.00;;;;;13.90;46.46;101144.06;6298749;22;45520;-77
2022/05/02 02:07:49;;;;;;;;;22.00;19.25;;;;;13.82;46.34;101137.56;6277049;22;46022;-77
2022/05/02 02:10:14;;;;;;;;;18.75;18.00;;;;;13.75;46.37;101127.66;6299931;22;46187;-77
2022/05/02 02:12:40;;;;;;;;;21.25;19.25;;;;;13.74;45.93;101133.84;6270585;22;45786;-76
2022/05/02 02:15:06;;;;;;;;;22.00;20.25;;;;;13.74;46.17;101131.22;6299767;22;45453;-77
2022/05/02 02:17:31;;;;;;;;;21.50;20.50;;;;;13.71;46.10;101129.66;6299975;22;46655;-77
2022/05/02 02:19:57;;;;;;;;;21.25;18.75;;;;;13.70;46.23;101124.53;6299929;22;46017;-77
2022/05/02 02:22:23;;;;;;;;;20.50;20.00;;;;;13.68;46.38;101127.25;6299009;22;45597;-77
2022/05/02 02:24:50;;;;;;;;;19.25;18.50;;;;;13.63;46.45;101120.66;6299850;22;46003;-77
2022/05/02 02:27:15;;;;;;;;;20.00;18.50;;;;;13.60;46.53;101123.53;6299295;22;46746;-76
2022/05/02 02:29:41;;;;;;;;;19.50;18.50;;;;;13.61;46.28;101126.03;6299982;22;45520;-77
2022/05/02 02:32:07;;;;;;;;;20.00;18.50;;;;;13.58;46.55;101115.75;6298408;22;45623;-76
2022/05/02 02:34:33;;;;;;;;;21.50;20.25;;;;;13.53;46.47;101109.16;6300113;22;45732;-77
2022/05/02 02:36:58;;;;;;;;;21.50;18.75;;;;;13.59;46.66;101117.44;6299654;22;45856;-76
2022/05/02 02:39:23;;;;;;;;;20.25;17.00;;;;;13.48;46.71;101100.78;6299820;22;45483;-77
2022/05/02 02:41:49;;;;;;;;;25.25;21.50;;;;;13.49;46.83;101103.28;6298330;22;45907;-77
2022/05/02 02:44:14;;;;;;;;;23.75;19.75;;;;;13.48;46.96;101106.88;6298824;22;45725;-77
2022/05/02 02:46:39;;;;;;;;;23.50;23.50;;;;;13.54;46.43;101116.09;6299233;22;46447;-77
2022/05/02 02:49:05;;;;;;;;;16.00;12.50;;;;;13.51;46.60;101113.69;6299101;22;46833;-77
2022/05/02 02:51:30;;;;;;;;;26.75;22.50;;;;;13.51;46.88;101111.91;6298787;22;45800;-77
2022/05/02 02:53:56;;;;;;;;;20.50;18.25;;;;;13.49;46.90;101105.09;6299119;22;45846;-76
2022/05/02 02:56:22;;;;;;;;;25.00;23.00;;;;;13.47;46.71;101109.63;6301039;22;46264;-77
2022/05/02 02:58:47;;;;;;;;;24.75;23.00;;;;;13.51;46.64;101116.31;6301053;22;46076;-77
2022/05/02 03:01:13;;;;;;;;;21.25;19.50;;;;;13.48;46.86;101106.03;6298153;22;45877;-77
2022/05/02 03:03:39;;;;;;;;;19.75;17.75;;;;;13.46;46.77;101103.50;6301501;22;45889;-76
2022/05/02 03:06:05;;;;;;;;;24.00;21.25;;;;;13.48;46.79;101103.41;6273128;22;48499;-77
2022/05/02 03:08:36;;;;;;;;;23.00;19.00;;;;;13.46;47.43;101108.78;6300811;22;46100;-77
2022/05/02 03:11:02;;;;;;;;;25.50;23.00;;;;;13.43;47.31;101107.22;6300041;22;45879;-76
2022/05/02 03:13:28;;;;;;;;;20.75;19.00;;;;;13.42;47.30;101104.69;6301228;22;45514;-77
2022/05/02 03:15:54;;;;;;;;;28.25;21.75;;;;;13.41;46.96;101100.38;6301145;22;46017;-76
2022/05/02 03:18:20;;;;;;;;;23.00;22.00;;;;;13.39;47.14;101100.50;6301056;22;46077;-77
2022/05/02 03:20:45;;;;;;;;;25.50;23.50;;;;;13.37;46.99;101091.03;6300470;22;45592;-77
2022/05/02 03:23:11;;;;;;;;;23.75;22.50;;;;;13.32;47.17;101087.91;6301386;22;45444;-76
2022/05/02 03:25:36;;;;;;;;;25.25;24.25;;;;;13.34;47.18;101089.47;6300886;22;45694;-76
2022/05/02 03:28:02;;;;;;;;;21.50;21.00;;;;;13.28;47.29;101079.41;6300061;22;46887;-77
2022/05/02 03:30:27;;;;;;;;;29.00;25.00;;;;;13.31;46.96;101080.97;6246202;22;45911;-77
2022/05/02 03:32:52;;;;;;;;;23.25;21.25;;;;;13.27;47.19;101082.16;6301292;22;45823;-77
2022/05/02 03:35:18;;;;;;;;;22.25;20.25;;;;;13.24;47.25;101077.97;6273028;22;48285;-76
2022/05/02 03:37:43;;;;;;;;;28.75;24.75;;;;;13.20;47.27;101071.25;6301080;22;46170;-77
2022/05/02 03:40:09;;;;;;;;;26.75;23.50;;;;;13.27;47.70;101082.16;6272743;22;45693;-77
2022/05/02 03:42:36;;;;;;;;;28.75;24.00;;;;;13.27;47.05;101088.28;6299351;22;45631;-76
2022/05/02 03:45:01;;;;;;;;;23.00;22.75;;;;;13.22;47.50;101077.25;6300814;22;46971;-77
2022/05/02 03:47:27;;;;;;;;;24.25;20.75;;;;;13.23;47.17;101081.53;6273208;22;45799;-76
2022/05/02 03:49:52;;;;;;;;;23.75;21.00;;;;;13.22;47.32;101076.41;6300773;22;45526;-77
2022/05/02 03:52:18;;;;;;;;;24.00;21.75;;;;;13.22;47.39;101074.63;6300246;22;45637;-75
2022/05/02 03:54:43;;;;;;;;;24.00;23.00;;;;;13.19;47.54;101072.19;6272809;22;48498;-74
2022/05/02 03:57:08;;;;;;;;;25.00;23.00;;;;;13.18;47.24;101074.94;6300623;22;45549;-76
2022/05/02 03:59:34;;;;;;;;;26.00;24.75;;;;;13.20;47.53;101073.03;6272884;22;46134;-76
2022/05/02 04:02:00;;;;;;;;;25.75;24.50;;;;;13.19;47.45;101079.25;6300335;22;45788;-77
2022/05/02 04:04:25;;;;;;;;;27.50;24.00;;;;;13.18;47.51;101078.41;6300827;22;46128;-77
2022/05/02 04:06:50;;;;;;;;;24.75;22.75;;;;;13.18;47.68;101077.56;6300065;22;46087;-77
2022/05/02 04:09:16;;;;;;;;;28.50;24.00;;;;;13.16;47.62;101075.06;6300426;22;45579;-77
2022/05/02 04:11:41;;;;;;;;;24.00;23.25;;;;;13.19;47.59;101081.88;6272343;22;45756;-77
2022/05/02 04:14:06;;;;;;;;;24.50;22.25;;;;;13.17;47.71;101079.34;6300481;22;46496;-77
2022/05/02 04:16:32;;;;;;;;;25.25;22.50;;;;;13.14;47.55;101081.38;6300140;22;46709;-77
2022/05/02 04:18:57;;;;;;;;;22.25;21.25;;;;;13.12;47.58;101078.03;6272608;22;45755;-77
2022/05/02 04:21:23;;;;;;;;;28.00;23.50;;;;;13.13;47.64;101077.06;6299720;22;45577;-77
2022/05/02 04:23:49;;;;;;;;;25.75;24.50;;;;;13.11;47.63;101090.31;6300387;22;47532;-76
2022/05/02 04:26:14;;;;;;;;;28.50;25.00;;;;;13.06;47.78;101081.94;6301025;22;46033;-77
2022/05/02 04:28:39;;;;;;;;;30.75;26.50;;;;;13.04;47.50;101079.41;6300278;22;45665;-76
2022/05/02 04:31:05;;;;;;;;;20.75;19.50;;;;;13.03;47.62;101074.25;6299416;22;45685;-77
2022/05/02 04:33:31;;;;;;;;;22.75;21.25;;;;;13.05;47.57;101080.25;6272719;22;46532;-77
2022/05/02 04:35:56;;;;;;;;;26.50;25.50;;;;;13.00;47.82;101074.50;6300619;22;45942;-77
2022/05/02 04:38:22;;;;;;;;;32.00;28.50;;;;;13.03;47.84;101076.88;6272760;22;45762;-77
2022/05/02 04:40:47;;;;;;;;;26.00;24.50;;;;;13.01;47.85;101081.41;6299778;22;45942;-77
2022/05/02 04:43:13;;;;;;;;;30.50;28.00;;;;;13.00;47.76;101083.22;6299621;22;46420;-77
2022/05/02 04:45:39;;;;;;;;;29.00;26.75;;;;;12.95;47.63;101076.63;6272444;22;48165;-77
2022/05/02 04:48:05;;;;;;;;;28.50;23.50;;;;;12.93;47.54;101065.38;6300499;22;45752;-77
2022/05/02 04:50:31;;;;;;;;;27.25;24.75;;;;;12.96;47.90;101068.59;6300159;22;45575;-77
2022/05/02 04:52:56;;;;;;;;;28.25;26.00;;;;;12.96;47.75;101078.28;6299646;22;46624;-77
2022/05/02 04:55:22;;;;;;;;;28.25;25.75;;;;;12.99;47.83;101085.97;6300614;22;45668;-77
2022/05/02 04:57:47;;;;;;;;;27.50;26.50;;;;;12.97;47.84;101083.44;6299751;22;45699;-77
2022/05/02 05:00:14;;;;;;;;;29.25;25.75;;;;;12.94;47.80;101075.78;6300346;22;45525;-77
2022/05/02 05:02:40;;;;;;;;;30.50;28.50;;;;;12.98;47.80;101085.13;6300042;22;46777;-76
2022/05/02 05:05:07;;;;;;;;;30.25;25.50;;;;;13.01;47.91;101084.03;6300952;22;46254;-77
2022/05/02 05:07:32;;;;;;;;;26.75;25.00;;;;;12.97;47.88;101077.34;6300059;22;45845;-77
2022/05/02 05:09:57;;;;;;;;;28.75;24.00;;;;;12.97;47.98;101079.97;6300237;22;45541;-76
2022/05/02 05:12:28;;;;;;;;;30.50;26.00;;;;;13.01;48.04;101078.78;6299495;22;45567;-77
2022/05/02 05:18:41;;;;;;;;;30.00;27.75;;;;;12.98;48.60;101097.44;6300625;22;45594;-77
2022/05/02 05:21:38;;;;;;;;;28.00;25.25;;;;;12.94;48.21;101081.03;6299807;22;45810;-77
2022/05/02 05:24:40;;;;;;;;;32.25;28.50;;;;;12.94;48.47;101091.56;6272194;22;48321;-77
2022/05/02 05:27:29;;;;;;;;;31.00;27.25;;;;;12.92;48.41;101085.56;6300192;22;46496;-77
2022/05/02 05:29:57;;;;;;;;;27.50;23.00;;;;;12.88;48.60;101088.53;6300207;22;45502;-77
2022/05/02 05:32:38;;;;;;;;;31.00;28.00;;;;;12.93;48.75;101091.66;6299651;22;45554;-77
2022/05/02 05:35:08;;;;;;;;;25.50;23.75;;;;;12.93;49.33;101095.13;6300296;22;47679;-77
2022/05/02 05:37:40;;;;;;;;;26.25;23.00;;;;;12.93;49.70;101094.31;6300183;22;46493;-77
2022/05/02 05:40:33;;;;;;;;;36.50;30.25;;;;;12.91;49.30;101091.78;6299813;22;45692;-77
2022/05/02 05:43:23;;;;;;;;;31.25;30.50;;;;;12.91;48.99;101088.31;6266524;22;45862;-77
2022/05/02 05:46:10;;;;;;;;;33.00;29.00;;;;;12.92;48.91;101087.34;6269043;22;46196;-76
2022/05/02 05:48:35;;;;;;;;;28.00;24.75;;;;;12.93;49.43;101087.25;6268137;22;46381;-77
2022/05/02 05:51:33;;;;;;;;;32.00;25.00;;;;;12.95;49.63;101093.25;6267021;22;45446;-77
2022/05/02 05:54:11;;;;;;;;;33.25;29.00;;;;;12.96;49.59;101086.16;6269007;22;45594;-77
2022/05/02 05:56:56;;;;;;;;;31.00;27.75;;;;;12.99;49.28;101081.53;6269487;22;46264;-77
2022/05/02 06:00:05;;;;;;;;;32.50;26.75;;;;;13.01;49.37;101084.03;6268585;22;46147;-76
2022/05/02 06:02:35;;;;;;;;;33.00;28.75;;;;;13.02;49.03;101078.69;6172629;23;45917;-77
2022/05/02 06:05:01;;;;;;;;;31.75;26.25;;;;;13.06;49.50;101078.47;6174735;23;45712;-79
2022/05/02 06:07:28;;;;;;;;;27.25;25.50;;;;;13.09;49.51;101094.00;6174471;23;47083;-77
2022/05/02 06:09:58;;;;;;;;;32.00;26.00;;;;;13.09;49.76;101089.59;6173500;23;46564;-78
2022/05/02 06:12:24;;;;;;;;;35.00;31.25;;;;;13.11;50.10;101089.47;6173501;23;45489;-78
2022/05/02 06:20:23;;;;;;;;;34.50;27.50;;;;;13.17;50.17;101094.34;6171881;23;45611;-77
2022/05/02 06:22:49;;;;;;;;;31.50;27.00;;;;;13.16;50.42;101093.50;6174249;23;45579;-74
2022/05/02 06:25:14;;;;;;;;;34.75;28.75;;;;;13.19;50.05;101095.88;6147407;23;45568;-74
2022/05/02 06:27:42;;;;;;;;;33.00;28.50;;;;;13.20;50.54;101096.72;6173295;23;46171;-74
2022/05/02 06:30:08;;;;;;;;;25.50;24.00;;;;;13.23;50.46;101088.59;6172264;23;46958;-75
2022/05/02 06:32:36;;;;;;;;;35.75;29.00;;;;;13.22;49.91;101092.19;6196934;22;45889;-73
2022/05/02 06:38:51;;;;;;;;;37.00;33.75;;;;;13.25;49.37;101095.44;6174340;23;46117;-75
2022/05/02 06:41:20;;;;;;;;;36.00;32.00;;;;;13.24;49.39;101085.00;6173202;23;46013;-75
2022/05/02 06:44:03;;;;;;;;;35.00;30.50;;;;;13.25;48.94;101095.44;6173623;23;45712;-76
2022/05/02 06:46:36;;;;;;;;;41.75;35.00;;;;;13.27;48.75;101095.31;6175254;23;45952;-76
2022/05/02 06:49:10;;;;;;;;;39.00;35.50;;;;;13.26;49.05;101094.47;6174075;23;45815;-75
2022/05/02 06:51:42;;;;;;;;;39.25;33.25;;;;;13.30;48.63;101097.72;6173802;23;46007;-75
2022/05/02 06:54:29;;;;;;;;;43.25;36.25;;;;;13.32;48.88;101095.81;6174264;23;45915;-77
2022/05/02 06:57:23;;;;;;;;;33.25;29.50;;;;;13.32;48.38;101091.41;6173974;23;46189;-77
2022/05/02 07:00:10;;;;;;;;;41.25;34.25;;;;;13.39;48.51;101103.13;6174110;23;46995;-75
2022/05/02 07:02:54;;;;;;;;;39.00;33.00;;;;;13.42;48.73;101100.28;6148432;23;47437;-76
2022/05/02 07:05:27;;;;;;;;;37.00;33.50;;;;;13.46;48.38;101106.13;6174582;23;45604;-77
2022/05/02 07:08:05;;;;;;;;;44.00;33.50;;;;;13.46;48.56;101092.97;6174055;23;45951;-77
2022/05/02 07:10:38;;;;;;;;;39.50;32.25;;;;;13.54;48.22;101109.06;6173123;23;45637;-78
2022/05/02 07:13:38;;;;;;;;;41.75;35.50;;;;;13.56;48.65;101099.22;6148220;23;47040;-78
2022/05/02 07:16:24;;;;;;;;;37.00;33.00;;;;;13.62;48.11;101106.66;6269032;22;45616;-78
2022/05/02 07:19:02;;;;;;;;;41.50;36.00;;;;;13.63;48.41;101103.06;6266882;22;45878;-78
2022/05/02 07:21:43;;;;;;;;;34.00;33.00;;;;;13.68;47.99;101100.09;6267814;22;45926;-75
2022/05/02 07:24:20;;;;;;;;;38.25;34.00;;;;;13.71;48.13;101103.31;6268309;22;45905;-77
2022/05/02 07:26:54;;;;;;;;;41.75;36.00;;;;;13.75;48.10;101102.16;6268523;22;45962;-78
2022/05/02 07:29:24;;;;;;;;;34.00;32.00;;;;;13.80;48.12;101107.91;6266396;22;45700;-78
2022/05/02 07:31:50;;;;;;;;;40.75;34.00;;;;;13.82;47.94;101100.72;6266941;22;46390;-76
2022/05/02 07:34:17;;;;;;;;;39.00;34.50;;;;;13.84;47.71;101097.97;6268536;22;45879;-76
2022/05/02 07:36:50;;;;;;;;;41.75;34.25;;;;;13.87;48.07;101093.28;6268526;22;45494;-75
2022/05/02 07:39:21;;;;;;;;;38.25;34.50;;;;;13.97;48.15;101108.41;6268344;22;45481;-75
2022/05/02 07:41:49;;;;;;;;;44.00;36.00;;;;;13.97;47.60;101103.97;6266856;22;45588;-76
2022/05/02 07:44:17;;;;;;;;;41.50;35.75;;;;;13.96;47.59;101091.75;6297317;22;46117;-78
2022/05/02 07:46:45;;;;;;;;;40.75;35.75;;;;;14.05;47.66;101100.72;6300040;22;45445;-75
2022/05/02 07:49:14;;;;;;;;;42.00;34.50;;;;;14.03;47.88;101092.97;6299964;22;45764;-76
2022/05/02 07:51:46;;;;;;;;;41.00;34.00;;;;;14.17;47.53;101105.06;6298456;22;46588;-76
2022/05/02 07:54:18;;;;;;;;;39.00;32.25;;;;;14.23;47.56;101105.41;6300227;22;46241;-77
2022/05/02 07:56:47;;;;;;;;;44.50;36.75;;;;;14.28;47.09;101102.41;6299803;22;45502;-77
2022/05/02 07:59:15;;;;;;;;;47.00;36.50;;;;;14.24;47.28;101090.44;6299412;22;45717;-76
2022/05/02 08:01:41;;;;;;;;;43.00;36.75;;;;;14.32;47.08;101093.31;6298816;22;46428;-76
2022/05/02 08:04:06;;;;;;;;;43.75;37.25;;;;;14.43;46.87;101105.66;6299841;22;45573;-77
2022/05/02 08:07:02;;;;;;;;;42.50;34.25;;;;;14.48;46.93;101108.78;6299636;22;45534;-78
2022/05/02 08:09:49;;;;;;;;;45.50;36.25;;;;;14.53;46.50;101107.44;6300197;22;45507;-76
2022/05/02 08:12:22;;;;;;;;;44.75;37.00;;;;;14.58;46.71;101121.09;6271210;22;46467;-77
2022/05/02 08:15:08;;;;;;;;;43.25;35.75;;;;;14.65;46.37;101106.47;6271322;22;46657;-77
2022/05/02 08:18:02;;;;;;;;;47.50;40.00;;;;;14.70;46.37;101111.38;6300091;22;45895;-76
2022/05/02 08:21:05;;;;;;;;;43.00;35.50;;;;;14.74;46.28;101104.88;6299106;22;45533;-77
2022/05/02 08:29:25;;;;;;;;;39.50;35.25;;;;;14.88;46.22;101099.34;6300498;22;46031;-76
2022/05/02 08:31:57;;;;;;;;;42.75;35.25;;;;;14.94;45.88;101100.66;6299636;22;45539;-77
2022/05/02 08:34:44;;;;;;;;;53.25;40.00;;;;;15.01;45.64;101107.94;6300334;22;46598;-77
2022/05/02 08:37:25;;;;;;;;;48.75;39.00;;;;;15.04;45.75;101104.22;6300541;22;46058;-77
2022/05/02 08:40:25;;;;;;;;;49.25;38.00;;;;;15.05;45.54;101090.91;6299799;22;45506;-77
2022/05/02 08:43:39;;;;;;;;;44.50;37.75;;;;;15.06;46.17;101095.19;6299791;22;45569;-76
2022/05/02 08:46:29;;;;;;;;;50.25;39.50;;;;;15.09;45.91;101094.13;6144299;23;46351;-77
2022/05/02 08:49:38;;;;;;;;;46.00;36.50;;;;;15.15;46.00;101096.25;6144477;23;45764;-77
2022/05/02 08:52:21;;;;;;;;;40.00;35.00;;;;;15.20;45.77;101091.44;6143414;23;46009;-77
2022/05/02 08:55:14;;;;;;;;;44.25;37.25;;;;;15.25;45.55;101102.44;6144607;23;45752;-77
2022/05/02 08:57:54;;;;;;;;;48.00;39.25;;;;;15.32;45.50;101101.00;6143680;23;45868;-78
2022/05/02 09:00:28;;;;;;;;;44.75;37.50;;;;;15.38;45.52;101102.28;6141981;23;47098;-76
2022/05/02 09:03:31;;;;;;;;;52.75;38.75;;;;;15.44;45.54;101099.94;6143462;23;45798;-77
2022/05/02 09:06:08;;;;;;;;;49.75;38.50;;;;;15.51;45.60;101100.28;6143870;23;45526;-77
2022/05/02 09:09:04;;;;;;;;;49.25;40.00;;;;;15.59;45.39;101097.03;6142808;22;45778;-77
2022/05/02 09:11:54;;;;;;;;;48.00;39.25;;;;;15.63;45.46;101101.94;6142356;23;46039;-76
2022/05/02 09:14:53;;;;;;;;;49.75;40.00;;;;;15.68;45.08;101096.25;6143500;23;45913;-77
2022/05/02 09:17:49;;;;;;;;;48.25;36.00;;;;;15.73;45.36;101101.97;6143370;23;45523;-76
2022/05/02 09:20:23;;;;;;;;;51.75;41.50;;;;;15.78;45.31;101099.78;6142081;23;45748;-77
2022/05/02 09:23:07;;;;;;;;;50.75;38.75;;;;;15.82;45.16;101091.47;6237396;22;47242;-76
2022/05/02 09:25:44;;;;;;;;;42.00;35.50;;;;;15.84;45.04;101097.47;6299180;22;45993;-75
2022/05/02 09:28:23;;;;;;;;;49.50;39.25;;;;;15.91;45.17;101097.78;6298540;22;45701;-77
2022/05/02 09:31:19;;;;;;;;;48.50;38.50;;;;;15.94;44.84;101079.00;6269905;22;47541;-75
2022/05/02 09:34:29;;;;;;;;;50.50;39.50;;;;;16.02;44.77;101083.66;6143352;22;46109;-76
2022/05/02 09:37:21;;;;;;;;;46.75;38.00;;;;;16.07;45.03;101084.94;6055131;23;45943;-76
2022/05/02 09:40:00;;;;;;;;;48.50;38.00;;;;;16.10;44.85;101083.81;6055198;23;45752;-76
2022/05/02 09:42:50;;;;;;;;;49.75;38.25;;;;;16.16;44.96;101097.34;6118420;23;45827;-77
2022/05/02 09:52:13;;;;;;;;;48.25;39.75;;;;;16.22;44.52;101080.94;6143455;23;45640;-75
2022/05/02 10:01:20;;;;;;;;;47.00;37.00;;;;;16.47;44.39;101070.84;5973158;23;45728;-77
2022/05/02 10:04:04;;;;;;;;;42.75;37.00;;;;;16.54;44.52;101070.19;5950846;23;45446;-76
2022/05/02 10:06:46;;;;;;;;;45.50;37.00;;;;;16.63;44.28;101066.72;5978680;23;45739;-78
2022/05/02 10:09:11;;;;;;;;;39.50;34.75;;;;;16.71;44.44;101069.56;5983790;23;46254;-76
2022/05/02 10:11:53;;;;;;;;;38.75;34.75;;;;;16.79;44.21;101064.41;6088049;23;45662;-78
2022/05/02 10:18:16;;;;;;;;;41.75;36.25;;;;;16.92;44.23;101060.66;6087697;23;45955;-79
2022/05/02 10:20:41;;;;;;;;;41.00;34.75;;;;;16.99;44.17;101064.41;6087975;23;46621;-79
2022/05/02 10:23:35;;;;;;;;;41.25;33.75;;;;;17.05;43.99;101050.63;6088410;23;45793;-79
2022/05/02 10:26:29;;;;;;;;;40.50;32.25;;;;;17.11;43.71;101058.03;6055084;23;45688;-78
2022/05/02 10:29:17;;;;;;;;;46.00;36.00;;;;;17.14;43.52;101058.56;6128317;23;45583;-78
2022/05/02 10:31:50;;;;;;;;;41.75;34.25;;;;;17.21;43.43;101053.56;6148079;23;46087;-78
2022/05/02 10:34:20;;;;;;;;;47.50;38.00;;;;;17.26;43.52;101050.47;6217586;22;45754;-78
2022/05/02 10:36:50;;;;;;;;;40.25;35.00;;;;;17.36;43.18;101059.25;6251605;22;45814;-77
2022/05/02 10:39:23;;;;;;;;;42.75;35.25;;;;;17.40;42.98;101048.22;6306995;22;46527;-77
2022/05/02 10:41:58;;;;;;;;;37.50;32.75;;;;;17.49;43.04;101051.84;6308753;22;46318;-78
2022/05/02 10:44:28;;;;;;;;;34.00;31.00;;;;;17.45;43.21;101023.94;6277525;22;45833;-77
2022/05/02 10:47:02;;;;;;;;;33.75;32.75;;;;;17.59;42.82;101045.56;6274612;22;45489;-78
2022/05/02 10:49:39;;;;;;;;;39.50;32.75;;;;;17.68;42.29;101045.69;6273450;22;46767;-78
2022/05/02 10:52:20;;;;;;;;;33.75;31.00;;;;;17.73;42.12;101051.38;6272921;22;45583;-78
2022/05/02 10:54:55;;;;;;;;;35.00;33.00;;;;;17.75;42.21;101034.38;6275003;22;45874;-78
2022/05/02 10:57:31;;;;;;;;;34.00;31.75;;;;;17.81;42.10;101035.59;6276845;22;45557;-78
2022/05/02 11:00:06;;;;;;;;;39.50;33.75;;;;;17.91;41.55;101034.59;6275610;22;47484;-78
2022/05/02 11:02:41;;;;;;;;;35.75;32.00;;;;;17.97;41.66;101035.81;6279487;22;46160;-77
2022/05/02 11:05:11;;;;;;;;;33.00;31.00;;;;;18.02;41.59;101030.91;6278528;22;45608;-78
2022/05/02 11:07:45;;;;;;;;;34.00;29.75;;;;;18.07;41.66;101033.13;6277839;22;45562;-78
2022/05/02 11:10:14;;;;;;;;;32.25;30.00;;;;;18.09;41.66;101029.31;6277891;22;46829;-78
2022/05/02 11:12:46;;;;;;;;;35.00;32.50;;;;;18.18;41.19;101020.50;6278049;22;46060;-78
2022/05/02 11:15:24;;;;;;;;;32.75;29.50;;;;;18.28;41.30;101018.63;6276545;22;45888;-78
2022/05/02 11:21:33;;;;;;;;;36.50;30.25;;;;;18.44;41.17;101013.50;6125086;23;46127;-77
2022/05/02 11:24:28;;;;;;;;;31.75;29.75;;;;;18.53;40.96;101017.06;6125266;23;46115;-78
2022/05/02 11:27:09;;;;;;;;;30.75;28.50;;;;;18.57;40.79;101020.28;6099923;23;45569;-78
2022/05/02 11:33:27;;;;;;;;;36.75;31.25;;;;;18.74;40.14;101011.47;6125231;23;45935;-77
2022/05/02 11:36:00;;;;;;;;;29.50;27.50;;;;;18.75;40.44;101007.84;6121577;23;46491;-78
2022/05/02 11:38:34;;;;;;;;;29.75;28.50;;;;;18.81;40.47;101015.22;6119698;23;45835;-78
2022/05/02 11:41:09;;;;;;;;;30.25;28.25;;;;;18.86;40.02;101004.97;6123599;23;45866;-78
2022/05/02 11:43:36;;;;;;;;;31.75;30.00;;;;;18.91;40.12;101007.16;6141730;23;45914;-77
2022/05/02 11:49:45;;;;;;;;;32.50;30.25;;;;;19.01;39.99;101011.41;6151529;23;45635;-78
2022/05/02 11:52:25;;;;;;;;;32.25;30.00;;;;;19.06;40.03;101003.78;6152315;23;45660;-78
2022/05/02 11:54:56;;;;;;;;;31.00;28.25;;;;;19.13;40.09;101006.69;6197685;22;47710;-77
2022/05/02 11:57:29;;;;;;;;;29.00;26.75;;;;;19.18;38.94;100996.41;6276758;22;47890;-78
2022/05/02 12:00:15;;;;;;;;;36.00;31.00;;;;;19.19;38.97;101009.56;6278339;22;45576;-77
2022/05/02 12:02:45;;;;;;;;;35.75;31.50;;;;;19.20;39.30;100999.78;6277133;22;45473;-77
2022/05/02 12:05:27;;;;;;;;;34.75;30.00;;;;;19.17;39.55;101005.38;6278433;22;46613;-79
2022/05/02 12:08:31;;;;;;;;;33.50;30.25;;;;;19.18;39.66;100988.44;6278277;22;46188;-77
2022/05/02 12:11:06;;;;;;;;;30.75;29.00;;;;;19.23;39.68;100992.31;6279006;22;45613;-78
2022/05/02 12:13:35;;;;;;;;;28.50;27.25;;;;;19.25;39.09;100998.31;6278791;22;45516;-78
2022/05/02 12:16:08;;;;;;;;;27.25;25.75;;;;;19.31;39.45;100998.69;6279111;22;46741;-77
2022/05/02 12:18:49;;;;;;;;;29.50;28.50;;;;;19.30;38.50;100995.19;6277696;22;46200;-75
2022/05/02 12:21:38;;;;;;;;;29.00;26.75;;;;;19.31;38.40;100996.03;6275066;22;45468;-78
2022/05/02 12:24:05;;;;;;;;;32.00;29.00;;;;;19.29;38.95;100996.16;6273364;22;45622;-79
2022/05/02 12:26:42;;;;;;;;;32.25;28.00;;;;;19.32;38.97;101001.19;6272488;22;45627;-77